UAL163 OMDB-KEWR
Flight info
| Callsign | UAL163 |
|---|---|
| Flight time | N/A |
| Altitude | 28000 |
| Route | RIDAP M557 TUMAK L602 RALKA/N0497F300 L602 TASMI DCT ODALI UL852 NEGEM DCT TEGRI/N0487F320 DCT ABETI DCT SNU DCT RENKA DCT MAMOR DCT PETIX DCT TUSUK DCT ADKUV DCT BUB L608 DENUT L610 KOPUL Q60 OKSAW DCT FELCA DCT OFSOX DCT SLANY DCT MALOT/M083F340 DCT 54N020W 54N030W 54N040W 53N050W DCT RIKAL/N0475F340 N576B ANATI/N0470F360 DCT IMORI DCT HANAA FLOSI4 |
| Aircraft | B77W/H-SDE1E2E3FGHIJ2J3J4J5M1RWXY/LB1D1 |
Departure
| Time | 2026-05-04 10:44 |
|---|---|
| Airport | Dubai International Airport (OMDB) |
Arrival
| Time | N/A |
|---|---|
| Airport | Newark Liberty International Airport (KEWR) |
| Time | Latitude | Longitude | Altitude | Speed | Heading |
|---|---|---|---|---|---|
| 2026-05-04 10:08 | 25.25573 | 55.35073 | 26 ft | 0 kts | 204° |
| 2026-05-04 10:29 | 25.25582 | 55.35077 | 26 ft | 4 kts | 204° |
| 2026-05-04 10:29 | 25.25604 | 55.35088 | 28 ft | 2 kts | 204° |
| 2026-05-04 10:29 | 25.25625 | 55.35096 | 31 ft | 4 kts | 179° |
| 2026-05-04 10:29 | 25.25646 | 55.35088 | 31 ft | 4 kts | 131° |
| 2026-05-04 10:30 | 25.25661 | 55.35066 | 30 ft | 4 kts | 117° |
| 2026-05-04 10:30 | 25.25667 | 55.35041 | 31 ft | 4 kts | 78° |
| 2026-05-04 10:30 | 25.25656 | 55.35019 | 31 ft | 4 kts | 33° |
| 2026-05-04 10:30 | 25.25635 | 55.35005 | 31 ft | 4 kts | 31° |
| 2026-05-04 10:31 | 25.25623 | 55.34997 | 31 ft | 0 kts | 31° |
| 2026-05-04 10:34 | 25.25630 | 55.35001 | 31 ft | 3 kts | 31° |
| 2026-05-04 10:34 | 25.25657 | 55.35019 | 31 ft | 6 kts | 31° |
| 2026-05-04 10:34 | 25.25706 | 55.35052 | 19 ft | 11 kts | 31° |
| 2026-05-04 10:35 | 25.25744 | 55.35122 | 28 ft | 11 kts | 85° |
| 2026-05-04 10:35 | 25.25772 | 55.35199 | 29 ft | 11 kts | 46° |
| 2026-05-04 10:35 | 25.25835 | 55.35250 | 32 ft | 11 kts | 32° |
| 2026-05-04 10:35 | 25.25908 | 55.35300 | 29 ft | 15 kts | 31° |
| 2026-05-04 10:36 | 25.25995 | 55.35405 | 27 ft | 23 kts | 68° |
| 2026-05-04 10:36 | 25.25966 | 55.35595 | 28 ft | 28 kts | 119° |
| 2026-05-04 10:36 | 25.25872 | 55.35767 | 28 ft | 26 kts | 121° |
| 2026-05-04 10:36 | 25.25777 | 55.35932 | 28 ft | 26 kts | 122° |
| 2026-05-04 10:37 | 25.25682 | 55.36099 | 28 ft | 26 kts | 121° |
| 2026-05-04 10:37 | 25.25589 | 55.36268 | 28 ft | 26 kts | 121° |
| 2026-05-04 10:37 | 25.25495 | 55.36433 | 29 ft | 21 kts | 122° |
| 2026-05-04 10:37 | 25.25418 | 55.36568 | 29 ft | 21 kts | 122° |
| 2026-05-04 10:39 | 25.24962 | 55.37385 | 30 ft | 21 kts | 121° |
| 2026-05-04 10:39 | 25.24886 | 55.37522 | 30 ft | 21 kts | 121° |
| 2026-05-04 10:39 | 25.24810 | 55.37657 | 29 ft | 21 kts | 122° |
| 2026-05-04 10:40 | 25.24732 | 55.37792 | 29 ft | 21 kts | 122° |
| 2026-05-04 10:40 | 25.24655 | 55.37928 | 29 ft | 21 kts | 122° |
| 2026-05-04 10:40 | 25.24604 | 55.38018 | 30 ft | 21 kts | 122° |
| 2026-05-04 10:40 | 25.24537 | 55.38137 | 29 ft | 17 kts | 122° |
| 2026-05-04 10:41 | 25.24463 | 55.38269 | 29 ft | 13 kts | 122° |
| 2026-05-04 10:41 | 25.24430 | 55.38328 | 29 ft | 13 kts | 122° |
| 2026-05-04 10:41 | 25.24400 | 55.38422 | 28 ft | 14 kts | 78° |
| 2026-05-04 10:41 | 25.24489 | 55.38517 | 26 ft | 14 kts | 31° |
| 2026-05-04 10:42 | 25.24546 | 55.38549 | 30 ft | 14 kts | 18° |
| 2026-05-04 10:42 | 25.24640 | 55.38544 | 29 ft | 14 kts | 346° |
| 2026-05-04 10:42 | 25.24728 | 55.38506 | 29 ft | 14 kts | 319° |
| 2026-05-04 10:42 | 25.24730 | 55.38415 | 26 ft | 14 kts | 230° |
| 2026-05-04 10:43 | 25.24665 | 55.38337 | 27 ft | 14 kts | 256° |
| 2026-05-04 10:44 | 25.26434 | 55.35018 | 779 ft | 182 kts | 301° |
| 2026-05-04 10:45 | 25.27108 | 55.33786 | 1317 ft | 186 kts | 299° |
| 2026-05-04 10:45 | 25.27772 | 55.32567 | 1893 ft | 188 kts | 301° |
| 2026-05-04 10:45 | 25.28498 | 55.31289 | 1979 ft | 202 kts | 302° |
| 2026-05-04 10:45 | 25.29248 | 55.29964 | 2204 ft | 208 kts | 302° |
| 2026-05-04 10:46 | 25.30068 | 55.28590 | 2339 ft | 218 kts | 304° |
| 2026-05-04 10:46 | 25.30961 | 55.27200 | 2532 ft | 224 kts | 307° |
| 2026-05-04 10:46 | 25.31904 | 55.25803 | 2840 ft | 229 kts | 306° |
| 2026-05-04 10:46 | 25.32845 | 55.24334 | 3054 ft | 236 kts | 304° |
| 2026-05-04 10:47 | 25.33766 | 55.22833 | 3395 ft | 239 kts | 305° |
| 2026-05-04 10:47 | 25.34708 | 55.21279 | 3625 ft | 249 kts | 305° |
| 2026-05-04 10:47 | 25.35680 | 55.19639 | 3732 ft | 262 kts | 293° |
| 2026-05-04 10:47 | 25.35995 | 55.17620 | 3894 ft | 274 kts | 269° |
| 2026-05-04 10:49 | 25.35240 | 55.02455 | 7128 ft | 288 kts | 270° |
| 2026-05-04 10:49 | 25.35156 | 55.00233 | 7577 ft | 290 kts | 271° |
| 2026-05-04 10:50 | 25.35084 | 54.98018 | 8183 ft | 287 kts | 271° |
| 2026-05-04 10:51 | 25.37205 | 54.82504 | 10445 ft | 322 kts | 290° |
| 2026-05-04 10:52 | 25.37901 | 54.80124 | 10565 ft | 337 kts | 289° |
| 2026-05-04 10:52 | 25.38630 | 54.77598 | 10686 ft | 352 kts | 289° |
| 2026-05-04 10:52 | 25.39372 | 54.75004 | 10867 ft | 364 kts | 289° |
| 2026-05-04 10:54 | 25.45003 | 54.55557 | 14049 ft | 389 kts | 289° |
| 2026-05-04 10:54 | 25.45845 | 54.52703 | 14524 ft | 391 kts | 289° |
| 2026-05-04 10:56 | 25.51834 | 54.32271 | 17634 ft | 406 kts | 288° |
| 2026-05-04 10:56 | 25.52705 | 54.29287 | 18056 ft | 408 kts | 288° |
| 2026-05-04 10:56 | 25.53580 | 54.26289 | 18421 ft | 411 kts | 288° |
| 2026-05-04 10:57 | 25.54461 | 54.23272 | 18791 ft | 413 kts | 288° |
| 2026-05-04 10:57 | 25.55357 | 54.20238 | 19132 ft | 416 kts | 288° |
| 2026-05-04 10:57 | 25.56262 | 54.17184 | 19496 ft | 418 kts | 288° |
| 2026-05-04 10:57 | 25.57172 | 54.14114 | 19878 ft | 420 kts | 288° |
| 2026-05-04 10:58 | 25.58084 | 54.11028 | 20242 ft | 422 kts | 288° |
| 2026-05-04 10:58 | 25.59000 | 54.07923 | 20614 ft | 425 kts | 288° |
| 2026-05-04 10:58 | 25.59912 | 54.04803 | 20970 ft | 427 kts | 287° |
| 2026-05-04 10:58 | 25.60809 | 54.01656 | 21330 ft | 429 kts | 287° |
| 2026-05-04 10:59 | 25.61701 | 53.98498 | 21685 ft | 431 kts | 286° |
| 2026-05-04 10:59 | 25.62586 | 53.95358 | 22021 ft | 434 kts | 286° |
| 2026-05-04 10:59 | 25.63499 | 53.92124 | 22408 ft | 435 kts | 286° |
| 2026-05-04 10:59 | 25.64392 | 53.88964 | 22790 ft | 436 kts | 286° |
| 2026-05-04 11:00 | 25.65300 | 53.85752 | 23119 ft | 439 kts | 286° |
| 2026-05-04 11:01 | 25.71730 | 53.62934 | 25239 ft | 446 kts | 285° |
| 2026-05-04 11:02 | 25.72651 | 53.59649 | 25532 ft | 447 kts | 285° |
| 2026-05-04 11:02 | 25.73573 | 53.56359 | 25803 ft | 447 kts | 285° |
| 2026-05-04 11:05 | 25.87740 | 53.09827 | 27759 ft | 469 kts | 292° |
| 2026-05-04 11:06 | 25.89100 | 53.06526 | 27758 ft | 469 kts | 292° |
| 2026-05-04 11:06 | 25.90447 | 53.03232 | 27760 ft | 469 kts | 292° |
| 2026-05-04 11:06 | 25.91789 | 52.99931 | 27755 ft | 469 kts | 292° |
| 2026-05-04 11:06 | 25.93128 | 52.96627 | 27755 ft | 469 kts | 292° |
| 2026-05-04 11:08 | 26.02455 | 52.73547 | 27770 ft | 467 kts | 292° |
| 2026-05-04 11:10 | 26.12647 | 52.51040 | 27762 ft | 466 kts | 294° |
| 2026-05-04 11:12 | 26.22867 | 52.28431 | 27773 ft | 467 kts | 293° |
| 2026-05-04 11:12 | 26.24283 | 52.25176 | 27769 ft | 467 kts | 293° |
| 2026-05-04 11:12 | 26.25684 | 52.21918 | 27769 ft | 466 kts | 293° |
| 2026-05-04 11:12 | 26.27085 | 52.18657 | 27773 ft | 466 kts | 293° |
| 2026-05-04 11:13 | 26.28489 | 52.15396 | 27774 ft | 466 kts | 293° |
| 2026-05-04 11:13 | 26.29895 | 52.12141 | 27772 ft | 466 kts | 293° |
| 2026-05-04 11:13 | 26.31306 | 52.08879 | 27778 ft | 466 kts | 293° |
| 2026-05-04 11:13 | 26.32709 | 52.05625 | 27779 ft | 466 kts | 293° |
| 2026-05-04 11:14 | 26.35950 | 51.98036 | 27777 ft | 465 kts | 292° |
| 2026-05-04 11:16 | 26.44904 | 51.72352 | 27797 ft | 464 kts | 288° |
| 2026-05-04 11:16 | 26.46042 | 51.68979 | 27783 ft | 464 kts | 288° |
| 2026-05-04 11:16 | 26.47184 | 51.65606 | 27780 ft | 464 kts | 288° |
| 2026-05-04 11:17 | 26.48329 | 51.62236 | 27776 ft | 464 kts | 288° |
| 2026-05-04 11:17 | 26.49456 | 51.58866 | 27783 ft | 464 kts | 288° |
| 2026-05-04 11:19 | 26.57276 | 51.35230 | 27797 ft | 464 kts | 288° |
| 2026-05-04 11:19 | 26.58394 | 51.31845 | 27797 ft | 464 kts | 288° |
| 2026-05-04 11:19 | 26.59508 | 51.28468 | 27789 ft | 463 kts | 288° |
| 2026-05-04 11:19 | 26.60625 | 51.25089 | 27785 ft | 463 kts | 288° |
| 2026-05-04 11:20 | 26.61741 | 51.21715 | 27782 ft | 463 kts | 288° |
| 2026-05-04 11:20 | 26.62842 | 51.18384 | 27782 ft | 462 kts | 288° |
| 2026-05-04 11:20 | 26.63955 | 51.15014 | 27786 ft | 462 kts | 288° |
| 2026-05-04 11:20 | 26.65066 | 51.11642 | 27797 ft | 464 kts | 287° |
| 2026-05-04 11:22 | 26.72675 | 50.88224 | 29742 ft | 453 kts | 287° |
| 2026-05-04 11:22 | 26.73738 | 50.84898 | 29789 ft | 454 kts | 287° |
| 2026-05-04 11:23 | 26.75864 | 50.78254 | 29789 ft | 453 kts | 287° |
| 2026-05-04 11:24 | 26.84246 | 50.59346 | 29791 ft | 461 kts | 304° |
| 2026-05-04 11:25 | 26.86266 | 50.56623 | 29799 ft | 461 kts | 305° |
| 2026-05-04 11:25 | 26.90359 | 50.51092 | 29794 ft | 461 kts | 304° |
| 2026-05-04 11:27 | 27.09201 | 50.28329 | 29794 ft | 465 kts | 308° |
| 2026-05-04 11:28 | 27.13557 | 50.23071 | 29801 ft | 465 kts | 308° |
| 2026-05-04 11:28 | 27.18298 | 50.18075 | 29783 ft | 472 kts | 317° |
| 2026-05-04 11:29 | 27.23625 | 50.13736 | 29798 ft | 473 kts | 318° |
| 2026-05-04 11:29 | 27.28936 | 50.09372 | 29798 ft | 472 kts | 317° |
| 2026-05-04 11:33 | 27.64337 | 49.78589 | 29800 ft | 471 kts | 316° |
| 2026-05-04 11:33 | 27.69493 | 49.74037 | 29805 ft | 470 kts | 316° |
| 2026-05-04 11:34 | 27.74645 | 49.69483 | 29800 ft | 470 kts | 316° |
| 2026-05-04 11:34 | 27.79779 | 49.64935 | 29804 ft | 469 kts | 316° |
| 2026-05-04 11:35 | 27.84899 | 49.60360 | 29821 ft | 469 kts | 316° |
| 2026-05-04 11:35 | 27.90014 | 49.55777 | 29809 ft | 469 kts | 316° |
| 2026-05-04 11:36 | 27.95130 | 49.51193 | 29793 ft | 469 kts | 316° |
| 2026-05-04 11:36 | 28.00250 | 49.46602 | 29808 ft | 469 kts | 316° |
| 2026-05-04 11:37 | 28.05360 | 49.41999 | 29815 ft | 469 kts | 315° |
| 2026-05-04 11:37 | 28.10456 | 49.37353 | 29809 ft | 470 kts | 315° |
| 2026-05-04 11:38 | 28.15542 | 49.32706 | 29808 ft | 470 kts | 315° |
| 2026-05-04 11:38 | 28.20632 | 49.28059 | 29803 ft | 470 kts | 315° |
| 2026-05-04 11:39 | 28.25725 | 49.23403 | 29820 ft | 470 kts | 315° |
| 2026-05-04 11:41 | 28.43736 | 49.07362 | 29810 ft | 475 kts | 320° |
| 2026-05-04 11:41 | 28.49238 | 49.03210 | 29803 ft | 474 kts | 320° |
| 2026-05-04 11:42 | 28.54726 | 48.99037 | 29825 ft | 474 kts | 319° |
| 2026-05-04 11:42 | 28.60190 | 48.94849 | 29809 ft | 473 kts | 319° |
| 2026-05-04 11:43 | 28.65652 | 48.90653 | 29805 ft | 473 kts | 319° |
| 2026-05-04 11:43 | 28.71107 | 48.86459 | 29821 ft | 473 kts | 319° |
| 2026-05-04 11:44 | 28.76527 | 48.82287 | 29814 ft | 473 kts | 319° |
| 2026-05-04 11:44 | 28.81982 | 48.78085 | 29810 ft | 473 kts | 319° |
| 2026-05-04 11:45 | 28.87444 | 48.73895 | 29830 ft | 473 kts | 319° |
| 2026-05-04 11:45 | 28.92913 | 48.69699 | 29811 ft | 474 kts | 319° |
| 2026-05-04 11:46 | 28.98389 | 48.65490 | 29810 ft | 474 kts | 319° |
| 2026-05-04 11:46 | 29.03863 | 48.61275 | 29815 ft | 474 kts | 319° |
| 2026-05-04 11:47 | 29.09336 | 48.57054 | 29810 ft | 474 kts | 319° |
| 2026-05-04 11:47 | 29.14794 | 48.52839 | 29809 ft | 473 kts | 319° |
| 2026-05-04 11:48 | 29.20254 | 48.48618 | 29803 ft | 473 kts | 319° |
| 2026-05-04 11:48 | 29.25677 | 48.44418 | 29814 ft | 473 kts | 319° |
| 2026-05-04 11:49 | 29.31135 | 48.40187 | 29805 ft | 474 kts | 319° |
| 2026-05-04 11:49 | 29.36596 | 48.35947 | 29821 ft | 474 kts | 319° |
| 2026-05-04 11:50 | 29.42050 | 48.31708 | 29804 ft | 474 kts | 319° |
| 2026-05-04 11:50 | 29.47705 | 48.27730 | 29822 ft | 479 kts | 323° |
| 2026-05-04 11:51 | 29.53513 | 48.23956 | 29805 ft | 480 kts | 323° |
| 2026-05-04 11:51 | 29.59285 | 48.20193 | 29809 ft | 480 kts | 323° |
| 2026-05-04 11:52 | 29.65087 | 48.16379 | 29797 ft | 480 kts | 322° |
| 2026-05-04 11:52 | 29.70875 | 48.12559 | 29797 ft | 480 kts | 322° |
| 2026-05-04 11:53 | 29.76669 | 48.08730 | 29797 ft | 480 kts | 322° |
| 2026-05-04 11:53 | 29.82463 | 48.04897 | 29783 ft | 480 kts | 322° |
| 2026-05-04 11:55 | 30.05347 | 47.89339 | 29782 ft | 470 kts | 317° |
| 2026-05-04 11:56 | 30.10685 | 47.84978 | 29775 ft | 469 kts | 317° |
| 2026-05-04 11:56 | 30.16010 | 47.80616 | 29769 ft | 469 kts | 317° |
| 2026-05-04 11:57 | 30.21346 | 47.76261 | 29777 ft | 469 kts | 317° |
| 2026-05-04 11:57 | 30.24703 | 47.73526 | 29791 ft | 469 kts | 317° |
| 2026-05-04 11:59 | 30.29066 | 47.69970 | 29777 ft | 469 kts | 317° |
| 2026-05-04 11:59 | 30.34403 | 47.65617 | 29787 ft | 469 kts | 317° |
| 2026-05-04 12:00 | 30.39745 | 47.61252 | 29805 ft | 470 kts | 317° |
| 2026-05-04 12:00 | 30.45082 | 47.56886 | 29797 ft | 469 kts | 317° |
| 2026-05-04 12:01 | 30.50418 | 47.52514 | 29796 ft | 469 kts | 317° |
| 2026-05-04 12:02 | 30.69065 | 47.37188 | 29764 ft | 469 kts | 317° |
| 2026-05-04 12:03 | 30.74354 | 47.32827 | 29752 ft | 469 kts | 317° |
| 2026-05-04 12:03 | 30.79676 | 47.28433 | 29751 ft | 469 kts | 317° |
| 2026-05-04 12:04 | 30.84991 | 47.24039 | 29770 ft | 469 kts | 317° |
| 2026-05-04 12:04 | 30.90307 | 47.19637 | 29740 ft | 469 kts | 317° |
| 2026-05-04 12:05 | 30.95635 | 47.15220 | 29753 ft | 469 kts | 317° |
| 2026-05-04 12:05 | 31.00948 | 47.10810 | 29769 ft | 469 kts | 317° |
| 2026-05-04 12:06 | 31.06265 | 47.06389 | 29754 ft | 469 kts | 317° |
| 2026-05-04 12:06 | 31.11551 | 47.01989 | 29750 ft | 469 kts | 317° |
| 2026-05-04 12:07 | 31.16870 | 46.97554 | 29770 ft | 470 kts | 317° |
| 2026-05-04 12:07 | 31.22187 | 46.93115 | 29759 ft | 470 kts | 317° |
| 2026-05-04 12:08 | 31.27507 | 46.88668 | 29757 ft | 470 kts | 317° |
| 2026-05-04 12:08 | 31.32819 | 46.84221 | 29771 ft | 470 kts | 317° |
| 2026-05-04 12:09 | 31.38131 | 46.79767 | 29756 ft | 470 kts | 317° |
| 2026-05-04 12:09 | 31.43443 | 46.75307 | 29756 ft | 469 kts | 317° |
| 2026-05-04 12:10 | 31.48753 | 46.70842 | 29770 ft | 470 kts | 317° |
| 2026-05-04 12:10 | 31.54060 | 46.66374 | 29770 ft | 469 kts | 317° |
| 2026-05-04 12:11 | 31.59365 | 46.61901 | 29766 ft | 469 kts | 317° |
| 2026-05-04 12:11 | 31.64639 | 46.57447 | 29766 ft | 470 kts | 317° |
| 2026-05-04 12:12 | 31.69944 | 46.52961 | 29765 ft | 470 kts | 317° |
| 2026-05-04 12:12 | 31.75243 | 46.48473 | 29799 ft | 470 kts | 317° |
| 2026-05-04 12:14 | 31.96449 | 46.30451 | 29806 ft | 471 kts | 317° |
| 2026-05-04 12:15 | 32.01755 | 46.25924 | 29803 ft | 471 kts | 316° |
| 2026-05-04 12:15 | 32.07056 | 46.21397 | 29822 ft | 470 kts | 316° |
| 2026-05-04 12:16 | 32.12357 | 46.16861 | 29814 ft | 471 kts | 316° |
| 2026-05-04 12:16 | 32.17652 | 46.12325 | 29817 ft | 470 kts | 316° |
| 2026-05-04 12:17 | 32.22944 | 46.07785 | 29822 ft | 470 kts | 316° |
| 2026-05-04 12:17 | 32.28226 | 46.03246 | 29833 ft | 470 kts | 316° |
| 2026-05-04 12:18 | 32.33508 | 45.98701 | 29846 ft | 470 kts | 316° |
| 2026-05-04 12:18 | 32.37901 | 45.94914 | 29843 ft | 470 kts | 316° |
| 2026-05-04 12:19 | 32.43192 | 45.90348 | 29835 ft | 470 kts | 316° |
| 2026-05-04 12:19 | 32.48480 | 45.85779 | 29857 ft | 471 kts | 316° |
| 2026-05-04 12:20 | 32.53774 | 45.81197 | 29845 ft | 471 kts | 316° |
| 2026-05-04 12:20 | 32.59068 | 45.76609 | 29845 ft | 471 kts | 316° |
| 2026-05-04 12:21 | 32.64355 | 45.72021 | 29869 ft | 471 kts | 316° |
| 2026-05-04 12:21 | 32.69650 | 45.67416 | 29859 ft | 472 kts | 316° |
| 2026-05-04 12:22 | 32.74942 | 45.62810 | 29862 ft | 471 kts | 316° |
| 2026-05-04 12:22 | 32.80234 | 45.58194 | 29876 ft | 472 kts | 316° |
| 2026-05-04 12:23 | 32.85536 | 45.53564 | 29871 ft | 473 kts | 316° |
| 2026-05-04 12:23 | 32.90806 | 45.48954 | 29883 ft | 474 kts | 316° |
| 2026-05-04 12:24 | 32.96127 | 45.44293 | 29880 ft | 475 kts | 316° |
| 2026-05-04 12:24 | 33.01461 | 45.39614 | 29886 ft | 476 kts | 316° |
| 2026-05-04 12:25 | 33.06793 | 45.34929 | 29876 ft | 477 kts | 315° |
| 2026-05-04 12:25 | 33.12150 | 45.30215 | 29887 ft | 478 kts | 315° |
| 2026-05-04 12:26 | 33.17509 | 45.25492 | 29911 ft | 479 kts | 315° |
| 2026-05-04 12:26 | 33.22876 | 45.20755 | 29888 ft | 479 kts | 315° |
| 2026-05-04 12:27 | 33.28233 | 45.16020 | 29886 ft | 479 kts | 315° |
| 2026-05-04 12:27 | 33.33584 | 45.11282 | 29893 ft | 479 kts | 315° |
| 2026-05-04 12:28 | 33.38899 | 45.06568 | 29889 ft | 478 kts | 315° |
| 2026-05-04 12:28 | 33.44238 | 45.01827 | 29911 ft | 477 kts | 314° |
| 2026-05-04 12:29 | 33.49571 | 44.97082 | 29895 ft | 477 kts | 314° |
| 2026-05-04 12:29 | 33.54898 | 44.92336 | 29876 ft | 477 kts | 314° |
| 2026-05-04 12:30 | 33.60213 | 44.87592 | 29880 ft | 476 kts | 314° |
| 2026-05-04 12:30 | 33.65526 | 44.82843 | 29877 ft | 475 kts | 314° |
| 2026-05-04 12:31 | 33.70834 | 44.78090 | 29877 ft | 475 kts | 314° |
| 2026-05-04 12:31 | 33.76140 | 44.73332 | 29883 ft | 476 kts | 314° |
| 2026-05-04 12:32 | 33.84117 | 44.66163 | 29875 ft | 477 kts | 314° |
| 2026-05-04 12:33 | 33.89404 | 44.61404 | 29911 ft | 478 kts | 314° |
| 2026-05-04 12:33 | 33.94735 | 44.56596 | 29879 ft | 479 kts | 314° |
| 2026-05-04 12:34 | 34.00067 | 44.51782 | 29881 ft | 479 kts | 314° |
| 2026-05-04 12:34 | 34.05399 | 44.46960 | 29883 ft | 479 kts | 314° |
| 2026-05-04 12:35 | 34.10730 | 44.42130 | 29888 ft | 479 kts | 314° |
| 2026-05-04 12:35 | 34.16062 | 44.37290 | 29881 ft | 480 kts | 313° |
| 2026-05-04 12:36 | 34.21398 | 44.32440 | 29869 ft | 480 kts | 313° |
| 2026-05-04 12:36 | 34.26728 | 44.27588 | 29873 ft | 479 kts | 313° |
| 2026-05-04 12:37 | 34.32019 | 44.22763 | 29871 ft | 479 kts | 313° |
| 2026-05-04 12:37 | 34.37342 | 44.17901 | 29874 ft | 479 kts | 313° |
| 2026-05-04 12:38 | 34.42661 | 44.13034 | 29872 ft | 479 kts | 313° |
| 2026-05-04 12:38 | 34.47976 | 44.08164 | 29865 ft | 479 kts | 313° |
| 2026-05-04 12:39 | 34.53289 | 44.03288 | 29867 ft | 478 kts | 313° |
| 2026-05-04 12:39 | 34.58599 | 43.98404 | 29856 ft | 479 kts | 312° |
| 2026-05-04 12:40 | 34.63911 | 43.93512 | 29858 ft | 479 kts | 312° |
| 2026-05-04 12:40 | 34.69223 | 43.88613 | 29869 ft | 480 kts | 312° |
| 2026-05-04 12:41 | 34.74503 | 43.83734 | 29870 ft | 480 kts | 312° |
| 2026-05-04 12:41 | 34.79821 | 43.78811 | 29865 ft | 481 kts | 312° |
| 2026-05-04 12:42 | 34.85144 | 43.73877 | 29858 ft | 481 kts | 312° |
| 2026-05-04 12:42 | 34.90467 | 43.68935 | 29856 ft | 481 kts | 312° |
| 2026-05-04 12:43 | 34.95786 | 43.63988 | 29858 ft | 481 kts | 312° |
| 2026-05-04 12:43 | 35.01104 | 43.59032 | 29849 ft | 482 kts | 312° |
| 2026-05-04 12:44 | 35.06431 | 43.54060 | 29855 ft | 482 kts | 312° |
| 2026-05-04 12:44 | 35.11752 | 43.49087 | 29847 ft | 482 kts | 312° |
| 2026-05-04 12:45 | 35.17078 | 43.44100 | 29846 ft | 482 kts | 312° |
| 2026-05-04 12:45 | 35.22399 | 43.39109 | 29843 ft | 482 kts | 312° |
| 2026-05-04 12:46 | 35.27719 | 43.34110 | 29838 ft | 482 kts | 312° |
| 2026-05-04 12:46 | 35.33034 | 43.29108 | 29850 ft | 482 kts | 312° |
| 2026-05-04 12:47 | 35.38322 | 43.24122 | 29842 ft | 483 kts | 312° |
| 2026-05-04 12:47 | 35.43651 | 43.19088 | 29839 ft | 483 kts | 313° |
| 2026-05-04 12:48 | 35.48976 | 43.14051 | 29841 ft | 484 kts | 313° |
| 2026-05-04 12:48 | 35.54311 | 43.08996 | 29835 ft | 484 kts | 313° |
| 2026-05-04 12:49 | 35.59644 | 43.03934 | 29835 ft | 484 kts | 312° |
| 2026-05-04 12:49 | 35.64941 | 42.98896 | 29842 ft | 486 kts | 312° |
| 2026-05-04 12:50 | 35.70284 | 42.93805 | 29834 ft | 486 kts | 312° |
| 2026-05-04 12:50 | 35.75643 | 42.88691 | 29828 ft | 487 kts | 312° |
| 2026-05-04 12:51 | 35.81005 | 42.83566 | 29833 ft | 488 kts | 312° |
| 2026-05-04 12:51 | 35.86364 | 42.78434 | 29828 ft | 488 kts | 312° |
| 2026-05-04 12:52 | 35.91722 | 42.73295 | 29830 ft | 487 kts | 312° |
| 2026-05-04 12:52 | 35.97072 | 42.68156 | 29823 ft | 487 kts | 312° |
| 2026-05-04 12:53 | 36.02421 | 42.63005 | 29833 ft | 487 kts | 312° |
| 2026-05-04 12:53 | 36.07767 | 42.57849 | 29840 ft | 488 kts | 312° |
| 2026-05-04 12:54 | 36.13085 | 42.52710 | 29837 ft | 489 kts | 312° |
| 2026-05-04 12:54 | 36.18480 | 42.47489 | 29833 ft | 489 kts | 312° |
| 2026-05-04 12:55 | 36.23796 | 42.42336 | 29835 ft | 489 kts | 312° |
| 2026-05-04 12:55 | 36.29155 | 42.37130 | 29843 ft | 490 kts | 311° |
| 2026-05-04 12:56 | 36.34518 | 42.31912 | 29843 ft | 490 kts | 311° |
| 2026-05-04 12:56 | 36.39872 | 42.26695 | 29837 ft | 489 kts | 311° |
| 2026-05-04 12:57 | 36.45221 | 42.21472 | 29824 ft | 489 kts | 311° |
| 2026-05-04 12:57 | 36.50567 | 42.16241 | 29849 ft | 489 kts | 311° |
| 2026-05-04 12:58 | 36.55913 | 42.11000 | 29848 ft | 489 kts | 311° |
| 2026-05-04 12:58 | 36.61263 | 42.05747 | 29850 ft | 490 kts | 311° |
| 2026-05-04 12:59 | 36.66610 | 42.00488 | 29861 ft | 491 kts | 311° |
| 2026-05-04 12:59 | 36.71969 | 41.95206 | 29856 ft | 491 kts | 311° |
| 2026-05-04 13:00 | 36.77292 | 41.89951 | 29848 ft | 492 kts | 311° |
| 2026-05-04 13:00 | 36.82661 | 41.84640 | 29856 ft | 493 kts | 311° |
| 2026-05-04 13:01 | 36.88038 | 41.79314 | 29863 ft | 493 kts | 311° |
| 2026-05-04 13:01 | 36.93402 | 41.73990 | 29882 ft | 493 kts | 311° |
| 2026-05-04 13:02 | 36.98776 | 41.68645 | 29872 ft | 493 kts | 311° |
| 2026-05-04 13:02 | 37.04142 | 41.63298 | 29881 ft | 493 kts | 311° |
| 2026-05-04 13:03 | 37.09520 | 41.57928 | 29885 ft | 495 kts | 311° |
| 2026-05-04 13:03 | 37.14867 | 41.52581 | 29892 ft | 495 kts | 311° |
| 2026-05-04 13:04 | 37.20247 | 41.47191 | 29922 ft | 496 kts | 311° |
| 2026-05-04 13:04 | 37.25647 | 41.41771 | 29892 ft | 497 kts | 311° |
| 2026-05-04 13:05 | 37.31038 | 41.36347 | 29906 ft | 497 kts | 311° |
| 2026-05-04 13:05 | 37.36453 | 41.30886 | 29885 ft | 501 kts | 311° |
| 2026-05-04 13:06 | 37.41889 | 41.25398 | 29897 ft | 501 kts | 311° |
| 2026-05-04 13:06 | 37.47325 | 41.19905 | 29902 ft | 501 kts | 311° |
| 2026-05-04 13:07 | 37.51832 | 41.15338 | 29901 ft | 501 kts | 311° |
| 2026-05-04 13:07 | 37.57259 | 41.09829 | 29889 ft | 501 kts | 311° |
| 2026-05-04 13:08 | 37.62684 | 41.04310 | 29907 ft | 501 kts | 311° |
| 2026-05-04 13:08 | 37.68117 | 40.98771 | 29892 ft | 503 kts | 311° |
| 2026-05-04 13:09 | 37.73562 | 40.93213 | 29954 ft | 504 kts | 311° |
| 2026-05-04 13:09 | 37.79025 | 40.87622 | 29894 ft | 505 kts | 311° |
| 2026-05-04 13:10 | 37.84481 | 40.82033 | 29887 ft | 504 kts | 311° |
| 2026-05-04 13:10 | 37.89927 | 40.76442 | 29892 ft | 504 kts | 311° |
| 2026-05-04 13:11 | 37.95362 | 40.70848 | 29898 ft | 503 kts | 311° |
| 2026-05-04 13:11 | 38.00799 | 40.65241 | 29891 ft | 504 kts | 311° |
| 2026-05-04 13:12 | 38.06198 | 40.59661 | 29877 ft | 504 kts | 312° |
| 2026-05-04 13:12 | 38.11625 | 40.54044 | 29886 ft | 502 kts | 312° |
| 2026-05-04 13:13 | 38.17032 | 40.48439 | 29955 ft | 501 kts | 313° |
| 2026-05-04 13:13 | 38.22431 | 40.42829 | 29891 ft | 501 kts | 312° |
| 2026-05-04 13:14 | 38.27826 | 40.37209 | 29910 ft | 501 kts | 312° |
| 2026-05-04 13:14 | 38.33218 | 40.31580 | 29917 ft | 502 kts | 313° |
| 2026-05-04 13:15 | 38.38626 | 40.25927 | 29920 ft | 502 kts | 313° |
| 2026-05-04 13:15 | 38.44022 | 40.20276 | 29969 ft | 502 kts | 313° |
| 2026-05-04 13:16 | 38.49391 | 40.14644 | 29904 ft | 495 kts | 313° |
| 2026-05-04 13:16 | 38.54694 | 40.09070 | 29923 ft | 494 kts | 313° |
| 2026-05-04 13:17 | 38.60016 | 40.03453 | 29930 ft | 498 kts | 314° |
| 2026-05-04 13:17 | 38.65360 | 39.97805 | 29912 ft | 499 kts | 314° |
| 2026-05-04 13:18 | 38.70710 | 39.92150 | 29926 ft | 497 kts | 314° |
| 2026-05-04 13:18 | 38.75991 | 39.86554 | 29928 ft | 494 kts | 315° |
| 2026-05-04 13:19 | 38.81268 | 39.80951 | 29914 ft | 491 kts | 315° |
| 2026-05-04 13:19 | 38.86500 | 39.75383 | 29918 ft | 488 kts | 314° |
| 2026-05-04 13:20 | 38.91715 | 39.69818 | 29907 ft | 490 kts | 314° |
| 2026-05-04 13:20 | 38.96987 | 39.64176 | 29929 ft | 496 kts | 314° |
| 2026-05-04 13:21 | 39.02297 | 39.58491 | 29961 ft | 495 kts | 315° |
| 2026-05-04 13:21 | 39.07551 | 39.52862 | 29924 ft | 488 kts | 315° |
| 2026-05-04 13:22 | 39.12762 | 39.47264 | 29932 ft | 488 kts | 315° |
| 2026-05-04 13:22 | 39.17972 | 39.41650 | 29959 ft | 489 kts | 315° |
| 2026-05-04 13:23 | 39.23189 | 39.36015 | 29937 ft | 489 kts | 315° |
| 2026-05-04 13:23 | 39.28403 | 39.30374 | 29935 ft | 489 kts | 315° |
| 2026-05-04 13:24 | 39.33614 | 39.24729 | 29944 ft | 489 kts | 316° |
| 2026-05-04 13:24 | 39.38828 | 39.19066 | 29938 ft | 490 kts | 316° |
| 2026-05-04 13:25 | 39.46623 | 39.10580 | 29936 ft | 490 kts | 316° |
| 2026-05-04 13:25 | 39.51836 | 39.04887 | 29880 ft | 489 kts | 316° |
| 2026-05-04 13:26 | 39.57025 | 38.99215 | 29882 ft | 488 kts | 316° |
| 2026-05-04 13:26 | 39.62220 | 38.93522 | 29871 ft | 490 kts | 316° |
| 2026-05-04 13:27 | 39.67433 | 38.87799 | 29847 ft | 491 kts | 316° |
| 2026-05-04 13:27 | 39.72647 | 38.82063 | 29835 ft | 491 kts | 316° |
| 2026-05-04 13:28 | 39.77825 | 38.76353 | 29844 ft | 491 kts | 316° |
| 2026-05-04 13:28 | 39.83030 | 38.70602 | 29832 ft | 490 kts | 316° |
| 2026-05-04 13:29 | 39.88226 | 38.64850 | 29828 ft | 491 kts | 315° |
| 2026-05-04 13:29 | 39.93424 | 38.59081 | 29821 ft | 491 kts | 315° |
| 2026-05-04 13:30 | 39.98620 | 38.53301 | 29823 ft | 496 kts | 316° |
| 2026-05-04 13:30 | 40.03901 | 38.47420 | 29798 ft | 502 kts | 315° |
| 2026-05-04 13:31 | 40.09199 | 38.41505 | 29787 ft | 496 kts | 316° |
| 2026-05-04 13:31 | 40.14414 | 38.35674 | 29800 ft | 493 kts | 316° |
| 2026-05-04 13:32 | 40.19631 | 38.29822 | 29784 ft | 495 kts | 316° |
| 2026-05-04 13:32 | 40.24859 | 38.23949 | 29788 ft | 495 kts | 317° |
| 2026-05-04 13:33 | 40.30025 | 38.17976 | 29783 ft | 494 kts | 311° |
| 2026-05-04 13:33 | 40.34026 | 38.10745 | 29795 ft | 489 kts | 296° |
| 2026-05-04 13:34 | 40.36630 | 38.02623 | 29767 ft | 487 kts | 288° |
| 2026-05-04 13:34 | 40.39042 | 37.94316 | 29777 ft | 487 kts | 288° |
| 2026-05-04 13:35 | 40.42734 | 37.81912 | 29804 ft | 486 kts | 288° |
| 2026-05-04 13:36 | 40.45198 | 37.73664 | 29782 ft | 485 kts | 288° |
| 2026-05-04 13:36 | 40.47650 | 37.65419 | 29793 ft | 484 kts | 289° |
| 2026-05-04 13:37 | 40.50100 | 37.57160 | 29796 ft | 484 kts | 288° |
| 2026-05-04 13:37 | 40.52540 | 37.48907 | 29791 ft | 486 kts | 289° |
| 2026-05-04 13:38 | 40.54988 | 37.40599 | 29790 ft | 488 kts | 289° |
| 2026-05-04 13:38 | 40.57436 | 37.32270 | 29790 ft | 489 kts | 289° |
| 2026-05-04 13:39 | 40.59865 | 37.23975 | 29807 ft | 489 kts | 289° |
| 2026-05-04 13:39 | 40.62310 | 37.15602 | 29800 ft | 491 kts | 289° |
| 2026-05-04 13:40 | 40.64757 | 37.07195 | 29807 ft | 492 kts | 289° |
| 2026-05-04 13:40 | 40.67197 | 36.98782 | 29803 ft | 492 kts | 289° |
| 2026-05-04 13:41 | 40.69632 | 36.90359 | 29816 ft | 492 kts | 289° |
| 2026-05-04 13:41 | 40.72060 | 36.81933 | 29809 ft | 492 kts | 289° |
| 2026-05-04 13:42 | 40.75684 | 36.69309 | 29829 ft | 491 kts | 289° |
| 2026-05-04 13:42 | 40.78089 | 36.60911 | 29811 ft | 494 kts | 289° |
| 2026-05-04 13:43 | 40.80530 | 36.52399 | 29821 ft | 498 kts | 289° |
| 2026-05-04 13:43 | 40.82984 | 36.43813 | 29809 ft | 500 kts | 289° |
| 2026-05-04 13:44 | 40.85435 | 36.35202 | 29820 ft | 502 kts | 289° |
| 2026-05-04 13:44 | 40.87891 | 36.26545 | 29819 ft | 503 kts | 289° |
| 2026-05-04 13:45 | 40.90345 | 36.17863 | 29818 ft | 504 kts | 289° |
| 2026-05-04 13:45 | 40.92795 | 36.09170 | 29811 ft | 504 kts | 289° |
| 2026-05-04 13:46 | 40.95220 | 36.00456 | 29809 ft | 504 kts | 289° |
| 2026-05-04 13:46 | 40.97602 | 35.91724 | 29802 ft | 504 kts | 289° |
| 2026-05-04 13:47 | 40.99992 | 35.82992 | 29802 ft | 504 kts | 289° |
| 2026-05-04 13:47 | 41.02398 | 35.74328 | 29803 ft | 504 kts | 290° |
| 2026-05-04 13:48 | 41.04819 | 35.65612 | 29812 ft | 504 kts | 290° |
| 2026-05-04 13:48 | 41.07228 | 35.56883 | 29788 ft | 505 kts | 289° |
| 2026-05-04 13:49 | 41.09632 | 35.48128 | 29785 ft | 506 kts | 290° |
| 2026-05-04 13:49 | 41.12036 | 35.39341 | 29795 ft | 507 kts | 290° |
| 2026-05-04 13:50 | 41.14442 | 35.30520 | 29787 ft | 509 kts | 290° |
| 2026-05-04 13:50 | 41.16844 | 35.21680 | 29798 ft | 509 kts | 290° |
| 2026-05-04 13:51 | 41.19240 | 35.12837 | 29796 ft | 509 kts | 290° |
| 2026-05-04 13:51 | 41.21616 | 35.04031 | 29798 ft | 509 kts | 290° |
| 2026-05-04 13:52 | 41.25183 | 34.90750 | 29767 ft | 509 kts | 290° |
| 2026-05-04 13:53 | 41.27557 | 34.81880 | 29785 ft | 509 kts | 290° |
| 2026-05-04 13:53 | 41.29923 | 34.73008 | 29785 ft | 509 kts | 290° |
| 2026-05-04 13:54 | 41.33062 | 34.61182 | 29781 ft | 510 kts | 290° |
| 2026-05-04 13:55 | 41.36992 | 34.46302 | 29800 ft | 511 kts | 290° |
| 2026-05-04 13:55 | 41.40115 | 34.34415 | 29783 ft | 511 kts | 291° |
| 2026-05-04 13:56 | 41.42402 | 34.25583 | 29799 ft | 513 kts | 291° |
| 2026-05-04 13:57 | 41.45846 | 34.12110 | 29811 ft | 515 kts | 291° |
| 2026-05-04 13:58 | 41.50511 | 33.93965 | 29806 ft | 519 kts | 292° |
| 2026-05-04 13:58 | 41.54022 | 33.80244 | 29823 ft | 522 kts | 292° |
| 2026-05-04 13:59 | 41.56362 | 33.71052 | 29802 ft | 523 kts | 293° |
| 2026-05-04 14:00 | 41.59872 | 33.57204 | 29835 ft | 525 kts | 293° |
| 2026-05-04 14:00 | 41.63328 | 33.43292 | 29802 ft | 526 kts | 294° |
| 2026-05-04 14:01 | 41.65665 | 33.34031 | 29846 ft | 525 kts | 294° |
| 2026-05-04 14:02 | 41.69155 | 33.20129 | 29847 ft | 525 kts | 294° |
| 2026-05-04 14:02 | 41.71451 | 33.10926 | 29817 ft | 524 kts | 295° |
| 2026-05-04 14:03 | 41.73754 | 33.01643 | 29851 ft | 521 kts | 295° |
| 2026-05-04 14:03 | 41.75976 | 32.92514 | 29875 ft | 518 kts | 294° |
| 2026-05-04 14:04 | 41.79311 | 32.78731 | 29842 ft | 519 kts | 294° |
| 2026-05-04 14:04 | 41.81543 | 32.69548 | 29846 ft | 517 kts | 295° |
| 2026-05-04 14:05 | 41.84922 | 32.55815 | 29862 ft | 516 kts | 295° |
| 2026-05-04 14:06 | 41.87159 | 32.46663 | 29853 ft | 515 kts | 294° |
| 2026-05-04 14:06 | 41.89320 | 32.37500 | 29864 ft | 515 kts | 294° |
| 2026-05-04 14:07 | 41.91484 | 32.28340 | 29865 ft | 514 kts | 294° |
| 2026-05-04 14:07 | 41.93671 | 32.19200 | 29868 ft | 514 kts | 294° |
| 2026-05-04 14:08 | 41.95839 | 32.10041 | 29859 ft | 515 kts | 294° |
| 2026-05-04 14:08 | 41.98006 | 32.00867 | 29873 ft | 516 kts | 294° |
| 2026-05-04 14:09 | 42.01256 | 31.87061 | 29844 ft | 515 kts | 294° |
| 2026-05-04 14:10 | 42.04465 | 31.73283 | 29854 ft | 514 kts | 294° |
| 2026-05-04 14:10 | 42.06598 | 31.64101 | 29876 ft | 514 kts | 294° |
| 2026-05-04 14:11 | 42.08728 | 31.54907 | 29831 ft | 513 kts | 294° |
| 2026-05-04 14:11 | 42.11900 | 31.41153 | 29867 ft | 513 kts | 294° |
| 2026-05-04 14:12 | 42.13989 | 31.32030 | 29867 ft | 513 kts | 294° |
| 2026-05-04 14:13 | 42.17143 | 31.18214 | 29878 ft | 514 kts | 293° |
| 2026-05-04 14:13 | 42.19243 | 31.08992 | 29890 ft | 515 kts | 293° |
| 2026-05-04 14:14 | 42.21347 | 30.99711 | 29895 ft | 517 kts | 293° |
| 2026-05-04 14:14 | 42.24487 | 30.85783 | 29918 ft | 518 kts | 292° |
| 2026-05-04 14:15 | 42.28651 | 30.67165 | 29905 ft | 516 kts | 292° |
| 2026-05-04 14:16 | 42.31733 | 30.53290 | 29904 ft | 513 kts | 292° |
| 2026-05-04 14:17 | 42.34773 | 30.39518 | 29921 ft | 511 kts | 292° |
| 2026-05-04 14:18 | 42.37806 | 30.25696 | 29934 ft | 510 kts | 291° |
| 2026-05-04 14:19 | 42.41820 | 30.07269 | 29945 ft | 510 kts | 291° |
| 2026-05-04 14:19 | 42.43821 | 29.98036 | 29935 ft | 510 kts | 291° |
| 2026-05-04 14:20 | 42.46014 | 29.88959 | 29945 ft | 503 kts | 298° |
| 2026-05-04 14:20 | 42.49216 | 29.80719 | 29954 ft | 492 kts | 309° |
| 2026-05-04 14:21 | 42.54999 | 29.69292 | 29939 ft | 490 kts | 309° |
| 2026-05-04 14:21 | 42.58841 | 29.61658 | 29968 ft | 490 kts | 309° |
| 2026-05-04 14:22 | 42.62674 | 29.53973 | 29980 ft | 492 kts | 309° |
| 2026-05-04 14:22 | 42.66503 | 29.46255 | 29996 ft | 493 kts | 309° |
| 2026-05-04 14:23 | 42.72249 | 29.34634 | 29957 ft | 494 kts | 308° |
| 2026-05-04 14:24 | 42.76078 | 29.26865 | 29983 ft | 493 kts | 308° |
| 2026-05-04 14:24 | 42.79893 | 29.19105 | 29990 ft | 492 kts | 308° |
| 2026-05-04 14:25 | 42.83699 | 29.11346 | 29993 ft | 492 kts | 308° |
| 2026-05-04 14:25 | 42.89362 | 28.99761 | 30005 ft | 491 kts | 308° |
| 2026-05-04 14:26 | 42.93146 | 28.91996 | 29980 ft | 491 kts | 308° |
| 2026-05-04 14:26 | 42.96913 | 28.84246 | 29998 ft | 489 kts | 307° |
| 2026-05-04 14:27 | 43.00672 | 28.76492 | 30012 ft | 489 kts | 307° |
| 2026-05-04 14:27 | 43.04425 | 28.68728 | 30008 ft | 489 kts | 307° |
| 2026-05-04 14:28 | 43.08168 | 28.60969 | 30004 ft | 488 kts | 307° |
| 2026-05-04 14:28 | 43.11897 | 28.53215 | 30011 ft | 488 kts | 307° |
| 2026-05-04 14:29 | 43.19322 | 28.37715 | 29995 ft | 488 kts | 306° |
| 2026-05-04 14:30 | 43.23042 | 28.29922 | 30015 ft | 489 kts | 306° |
| 2026-05-04 14:31 | 43.28632 | 28.18166 | 30023 ft | 491 kts | 306° |
| 2026-05-04 14:32 | 43.36097 | 28.02398 | 30026 ft | 493 kts | 305° |
| 2026-05-04 14:32 | 43.39825 | 27.94488 | 30029 ft | 493 kts | 305° |
| 2026-05-04 14:33 | 43.43547 | 27.86574 | 30006 ft | 493 kts | 305° |
| 2026-05-04 14:33 | 43.47256 | 27.78664 | 30016 ft | 490 kts | 305° |
| 2026-05-04 14:34 | 43.50939 | 27.70789 | 30015 ft | 488 kts | 305° |
| 2026-05-04 14:34 | 43.54599 | 27.62941 | 30012 ft | 486 kts | 305° |
| 2026-05-04 14:35 | 43.58245 | 27.55103 | 30000 ft | 486 kts | 304° |
| 2026-05-04 14:35 | 43.61898 | 27.47233 | 30026 ft | 489 kts | 304° |
| 2026-05-04 14:36 | 43.65554 | 27.39331 | 30034 ft | 493 kts | 304° |
| 2026-05-04 14:36 | 43.69250 | 27.31324 | 30029 ft | 495 kts | 304° |
| 2026-05-04 14:37 | 43.72952 | 27.23278 | 30026 ft | 495 kts | 304° |
| 2026-05-04 14:37 | 43.76636 | 27.15247 | 30014 ft | 493 kts | 304° |
| 2026-05-04 14:38 | 43.80301 | 27.07238 | 30026 ft | 491 kts | 303° |
| 2026-05-04 14:38 | 43.83944 | 26.99254 | 30018 ft | 489 kts | 303° |
| 2026-05-04 14:39 | 43.86961 | 26.92625 | 30032 ft | 489 kts | 303° |
| 2026-05-04 14:39 | 43.91192 | 26.83308 | 30033 ft | 488 kts | 303° |
| 2026-05-04 14:40 | 43.96585 | 26.71385 | 30028 ft | 489 kts | 302° |
| 2026-05-04 14:40 | 44.00192 | 26.63384 | 30036 ft | 489 kts | 302° |
| 2026-05-04 14:41 | 44.03212 | 26.56668 | 30035 ft | 489 kts | 302° |
| 2026-05-04 14:42 | 44.10399 | 26.40618 | 30035 ft | 490 kts | 302° |
| 2026-05-04 14:42 | 44.13998 | 26.32550 | 30032 ft | 490 kts | 302° |
| 2026-05-04 14:43 | 44.17595 | 26.24462 | 30041 ft | 490 kts | 302° |
| 2026-05-04 14:43 | 44.21153 | 26.16437 | 30018 ft | 490 kts | 302° |
| 2026-05-04 14:44 | 44.24731 | 26.08348 | 30034 ft | 490 kts | 302° |
| 2026-05-04 14:44 | 44.28307 | 26.00240 | 30038 ft | 491 kts | 302° |
| 2026-05-04 14:45 | 44.31884 | 25.92105 | 30045 ft | 492 kts | 302° |
| 2026-05-04 14:45 | 44.35462 | 25.83949 | 30050 ft | 491 kts | 302° |
| 2026-05-04 14:46 | 44.39015 | 25.75823 | 30035 ft | 488 kts | 302° |
| 2026-05-04 14:46 | 44.42543 | 25.67731 | 30033 ft | 486 kts | 301° |
| 2026-05-04 14:47 | 44.46052 | 25.59660 | 30035 ft | 485 kts | 301° |
| 2026-05-04 14:47 | 44.49551 | 25.51589 | 30035 ft | 484 kts | 300° |
| 2026-05-04 14:48 | 44.53042 | 25.43517 | 30038 ft | 485 kts | 301° |
| 2026-05-04 14:48 | 44.56529 | 25.35428 | 30039 ft | 485 kts | 300° |
| 2026-05-04 14:49 | 44.59989 | 25.27382 | 30010 ft | 480 kts | 300° |
| 2026-05-04 14:49 | 44.63400 | 25.19426 | 30018 ft | 473 kts | 300° |
| 2026-05-04 14:50 | 44.66776 | 25.11528 | 30018 ft | 469 kts | 300° |
| 2026-05-04 14:50 | 44.70123 | 25.03678 | 30027 ft | 468 kts | 300° |
| 2026-05-04 14:51 | 44.73468 | 24.95812 | 30025 ft | 470 kts | 299° |
| 2026-05-04 14:51 | 44.76822 | 24.87900 | 30027 ft | 472 kts | 299° |
| 2026-05-04 14:52 | 44.80183 | 24.79950 | 30021 ft | 473 kts | 299° |
| 2026-05-04 14:52 | 44.83550 | 24.71966 | 30028 ft | 474 kts | 299° |
| 2026-05-04 14:53 | 44.86913 | 24.63971 | 30030 ft | 473 kts | 298° |
| 2026-05-04 14:53 | 44.90234 | 24.56048 | 30009 ft | 470 kts | 298° |
| 2026-05-04 14:54 | 44.93539 | 24.48143 | 30016 ft | 467 kts | 298° |
| 2026-05-04 14:54 | 44.96825 | 24.40259 | 30009 ft | 465 kts | 298° |
| 2026-05-04 14:55 | 45.00094 | 24.32397 | 30016 ft | 464 kts | 298° |
| 2026-05-04 14:55 | 45.03356 | 24.24528 | 30033 ft | 463 kts | 298° |
| 2026-05-04 14:56 | 45.06613 | 24.16649 | 30041 ft | 464 kts | 298° |
| 2026-05-04 14:56 | 45.09872 | 24.08745 | 30037 ft | 466 kts | 298° |
| 2026-05-04 14:57 | 45.13108 | 24.00872 | 30049 ft | 466 kts | 298° |
| 2026-05-04 14:57 | 45.16363 | 23.92932 | 30038 ft | 465 kts | 298° |
| 2026-05-04 14:58 | 45.19605 | 23.85002 | 30051 ft | 465 kts | 298° |
| 2026-05-04 14:58 | 45.22842 | 23.77061 | 30051 ft | 464 kts | 298° |
| 2026-05-04 14:59 | 45.26065 | 23.69128 | 30052 ft | 463 kts | 300° |
| 2026-05-04 15:00 | 45.30870 | 23.57268 | 30034 ft | 461 kts | 299° |
| 2026-05-04 15:00 | 45.34052 | 23.49380 | 30045 ft | 460 kts | 300° |
| 2026-05-04 15:01 | 45.38797 | 23.37589 | 30069 ft | 460 kts | 300° |
| 2026-05-04 15:01 | 45.41964 | 23.29687 | 30044 ft | 460 kts | 300° |
| 2026-05-04 15:02 | 45.45125 | 23.21777 | 30069 ft | 458 kts | 300° |
| 2026-05-04 15:02 | 45.48269 | 23.13885 | 30045 ft | 458 kts | 300° |
| 2026-05-04 15:03 | 45.51422 | 23.05951 | 30073 ft | 461 kts | 301° |
| 2026-05-04 15:03 | 45.54596 | 22.97941 | 30079 ft | 466 kts | 301° |
| 2026-05-04 15:04 | 45.57790 | 22.89858 | 30079 ft | 469 kts | 301° |
| 2026-05-04 15:04 | 45.60969 | 22.81789 | 30063 ft | 469 kts | 301° |
| 2026-05-04 15:05 | 45.64158 | 22.73666 | 30070 ft | 468 kts | 301° |
| 2026-05-04 15:05 | 45.67331 | 22.65564 | 30069 ft | 466 kts | 301° |
| 2026-05-04 15:06 | 45.70484 | 22.57488 | 30070 ft | 464 kts | 301° |
| 2026-05-04 15:07 | 45.75188 | 22.45397 | 30072 ft | 462 kts | 301° |
| 2026-05-04 15:07 | 45.78308 | 22.37348 | 30077 ft | 462 kts | 300° |
| 2026-05-04 15:08 | 45.81424 | 22.29287 | 30073 ft | 463 kts | 300° |
| 2026-05-04 15:08 | 45.84538 | 22.21207 | 30074 ft | 463 kts | 300° |
| 2026-05-04 15:09 | 45.87657 | 22.13089 | 30088 ft | 464 kts | 301° |
| 2026-05-04 15:09 | 45.90766 | 22.04973 | 30071 ft | 464 kts | 301° |
| 2026-05-04 15:10 | 45.95412 | 21.92801 | 30086 ft | 465 kts | 301° |
| 2026-05-04 15:11 | 46.00062 | 21.80564 | 30084 ft | 464 kts | 301° |
| 2026-05-04 15:11 | 46.03141 | 21.72429 | 30086 ft | 463 kts | 301° |
| 2026-05-04 15:12 | 46.06219 | 21.64274 | 30081 ft | 462 kts | 301° |
| 2026-05-04 15:12 | 46.09284 | 21.56133 | 30081 ft | 462 kts | 301° |
| 2026-05-04 15:13 | 46.12332 | 21.48008 | 30068 ft | 460 kts | 300° |
| 2026-05-04 15:13 | 46.15366 | 21.39898 | 30071 ft | 459 kts | 300° |
| 2026-05-04 15:14 | 46.18385 | 21.31807 | 30074 ft | 458 kts | 300° |
| 2026-05-04 15:14 | 46.21379 | 21.23761 | 30072 ft | 457 kts | 300° |
| 2026-05-04 15:15 | 46.24385 | 21.15665 | 30070 ft | 457 kts | 300° |
| 2026-05-04 15:15 | 46.27381 | 21.07565 | 30083 ft | 457 kts | 300° |
| 2026-05-04 15:16 | 46.31892 | 20.95410 | 30083 ft | 458 kts | 300° |
| 2026-05-04 15:17 | 46.36410 | 20.83213 | 30082 ft | 458 kts | 300° |
| 2026-05-04 15:17 | 46.40918 | 20.70984 | 30093 ft | 459 kts | 300° |
| 2026-05-04 15:18 | 46.43923 | 20.62803 | 30081 ft | 460 kts | 300° |
| 2026-05-04 15:19 | 46.48402 | 20.50558 | 30069 ft | 460 kts | 299° |
| 2026-05-04 15:19 | 46.52886 | 20.38242 | 30075 ft | 459 kts | 299° |
| 2026-05-04 15:20 | 46.55866 | 20.30025 | 30077 ft | 459 kts | 299° |
| 2026-05-04 15:20 | 46.58835 | 20.21815 | 30071 ft | 459 kts | 299° |
| 2026-05-04 15:21 | 46.61802 | 20.13587 | 30071 ft | 459 kts | 299° |
| 2026-05-04 15:22 | 46.66238 | 20.01233 | 30068 ft | 459 kts | 299° |
| 2026-05-04 15:22 | 46.70642 | 19.88915 | 30062 ft | 459 kts | 299° |
| 2026-05-04 15:23 | 46.73585 | 19.80650 | 30050 ft | 459 kts | 298° |
| 2026-05-04 15:23 | 46.76521 | 19.72379 | 30056 ft | 459 kts | 298° |
| 2026-05-04 15:24 | 46.82368 | 19.55828 | 30060 ft | 459 kts | 298° |
| 2026-05-04 15:25 | 46.85287 | 19.47527 | 30056 ft | 458 kts | 298° |
| 2026-05-04 15:26 | 46.89640 | 19.35100 | 30052 ft | 457 kts | 298° |
| 2026-05-04 15:26 | 46.93967 | 19.22688 | 30048 ft | 456 kts | 298° |
| 2026-05-04 15:27 | 46.98254 | 19.10335 | 30047 ft | 455 kts | 298° |
| 2026-05-04 15:28 | 47.02541 | 18.97922 | 30064 ft | 455 kts | 298° |
| 2026-05-04 15:29 | 47.06814 | 18.85493 | 30043 ft | 455 kts | 298° |
| 2026-05-04 15:30 | 47.16256 | 18.57810 | 30055 ft | 454 kts | 297° |
| 2026-05-04 15:31 | 47.20481 | 18.45330 | 30053 ft | 454 kts | 297° |
| 2026-05-04 15:32 | 47.27481 | 18.24517 | 30047 ft | 453 kts | 297° |
| 2026-05-04 15:34 | 47.34440 | 18.03660 | 30017 ft | 454 kts | 296° |
| 2026-05-04 15:34 | 47.38609 | 17.91083 | 30042 ft | 455 kts | 296° |
| 2026-05-04 15:35 | 47.42763 | 17.78489 | 30026 ft | 454 kts | 296° |
| 2026-05-04 15:36 | 47.46876 | 17.65963 | 30027 ft | 453 kts | 296° |
| 2026-05-04 15:36 | 47.49624 | 17.57556 | 29982 ft | 455 kts | 296° |
| 2026-05-04 15:37 | 47.52370 | 17.49132 | 30006 ft | 455 kts | 296° |
| 2026-05-04 15:37 | 47.55116 | 17.40679 | 29997 ft | 455 kts | 296° |
| 2026-05-04 15:38 | 47.57841 | 17.32263 | 29973 ft | 453 kts | 295° |
| 2026-05-04 15:38 | 47.60561 | 17.23834 | 30001 ft | 453 kts | 295° |
| 2026-05-04 15:39 | 47.63278 | 17.15394 | 29997 ft | 455 kts | 295° |
| 2026-05-04 15:40 | 47.67361 | 17.02660 | 29984 ft | 455 kts | 295° |
| 2026-05-04 15:40 | 47.69866 | 16.94062 | 29983 ft | 451 kts | 292° |
| 2026-05-04 15:41 | 47.72183 | 16.85439 | 29996 ft | 452 kts | 292° |
| 2026-05-04 15:41 | 47.74515 | 16.76788 | 29981 ft | 458 kts | 292° |
| 2026-05-04 15:42 | 47.76907 | 16.67994 | 29974 ft | 456 kts | 292° |
| 2026-05-04 15:42 | 47.79268 | 16.59314 | 29968 ft | 450 kts | 292° |
| 2026-05-04 15:43 | 47.81602 | 16.50691 | 29970 ft | 452 kts | 292° |
| 2026-05-04 15:43 | 47.83957 | 16.41970 | 29975 ft | 455 kts | 292° |
| 2026-05-04 15:44 | 47.86323 | 16.33175 | 29973 ft | 455 kts | 292° |
| 2026-05-04 15:44 | 47.88654 | 16.24476 | 29962 ft | 450 kts | 292° |
| 2026-05-04 15:45 | 47.90968 | 16.15873 | 29969 ft | 447 kts | 291° |
| 2026-05-04 15:45 | 47.93288 | 16.07248 | 29955 ft | 454 kts | 291° |
| 2026-05-04 15:46 | 47.95646 | 15.98451 | 29961 ft | 456 kts | 292° |
| 2026-05-04 15:46 | 47.97973 | 15.89736 | 29956 ft | 450 kts | 291° |
| 2026-05-04 15:47 | 48.00284 | 15.81043 | 29954 ft | 450 kts | 291° |
| 2026-05-04 15:47 | 48.02589 | 15.72340 | 29947 ft | 451 kts | 291° |
| 2026-05-04 15:48 | 48.04898 | 15.63590 | 29954 ft | 453 kts | 291° |
| 2026-05-04 15:48 | 48.08367 | 15.50385 | 29954 ft | 456 kts | 291° |
| 2026-05-04 15:49 | 48.10683 | 15.41527 | 29945 ft | 457 kts | 290° |
| 2026-05-04 15:49 | 48.12990 | 15.32665 | 29941 ft | 457 kts | 290° |
| 2026-05-04 15:50 | 48.15274 | 15.23861 | 29921 ft | 456 kts | 290° |
| 2026-05-04 15:50 | 48.17563 | 15.15006 | 29933 ft | 456 kts | 290° |
| 2026-05-04 15:51 | 48.19843 | 15.06146 | 29932 ft | 455 kts | 290° |
| 2026-05-04 15:51 | 48.22114 | 14.97288 | 29925 ft | 455 kts | 290° |
| 2026-05-04 15:52 | 48.24381 | 14.88414 | 29914 ft | 456 kts | 290° |
| 2026-05-04 15:52 | 48.26644 | 14.79522 | 29917 ft | 456 kts | 290° |
| 2026-05-04 15:53 | 48.28897 | 14.70631 | 29923 ft | 456 kts | 290° |
| 2026-05-04 15:53 | 48.31149 | 14.61711 | 29913 ft | 457 kts | 290° |
| 2026-05-04 15:54 | 48.33392 | 14.52789 | 29915 ft | 456 kts | 290° |
| 2026-05-04 15:54 | 48.35628 | 14.43864 | 29901 ft | 456 kts | 289° |
| 2026-05-04 15:55 | 48.37858 | 14.34925 | 29912 ft | 456 kts | 289° |
| 2026-05-04 15:55 | 48.40078 | 14.25991 | 29904 ft | 455 kts | 289° |
| 2026-05-04 15:56 | 48.42275 | 14.17115 | 29898 ft | 455 kts | 289° |
| 2026-05-04 15:56 | 48.44476 | 14.08185 | 29905 ft | 454 kts | 289° |
| 2026-05-04 15:57 | 48.46666 | 13.99267 | 29905 ft | 453 kts | 289° |
| 2026-05-04 15:57 | 48.48845 | 13.90362 | 29913 ft | 452 kts | 288° |
| 2026-05-04 15:58 | 48.51012 | 13.81466 | 29910 ft | 452 kts | 288° |
| 2026-05-04 15:58 | 48.53178 | 13.72544 | 29906 ft | 453 kts | 288° |
| 2026-05-04 15:59 | 48.55342 | 13.63597 | 29904 ft | 454 kts | 288° |
| 2026-05-04 15:59 | 48.57504 | 13.54631 | 29913 ft | 454 kts | 288° |
| 2026-05-04 16:00 | 48.59657 | 13.45654 | 29924 ft | 455 kts | 288° |
| 2026-05-04 16:00 | 48.61814 | 13.36662 | 29913 ft | 455 kts | 288° |
| 2026-05-04 16:01 | 48.63967 | 13.27668 | 29911 ft | 455 kts | 288° |
| 2026-05-04 16:01 | 48.66113 | 13.18676 | 29905 ft | 454 kts | 288° |
| 2026-05-04 16:02 | 48.68238 | 13.09740 | 29923 ft | 454 kts | 287° |
| 2026-05-04 16:03 | 48.71421 | 12.96276 | 29916 ft | 452 kts | 287° |
| 2026-05-04 16:03 | 48.73526 | 12.87329 | 29914 ft | 450 kts | 287° |
| 2026-05-04 16:04 | 48.75620 | 12.78392 | 29919 ft | 450 kts | 287° |
| 2026-05-04 16:04 | 48.78744 | 12.64987 | 29925 ft | 450 kts | 287° |
| 2026-05-04 16:05 | 48.80821 | 12.56032 | 29933 ft | 451 kts | 287° |
| 2026-05-04 16:06 | 48.83921 | 12.42600 | 29922 ft | 452 kts | 287° |
| 2026-05-04 16:07 | 48.88060 | 12.24549 | 29937 ft | 454 kts | 287° |
| 2026-05-04 16:08 | 48.93373 | 12.07067 | 29932 ft | 456 kts | 293° |